sensor_id;sensor_type;location;lat;lon;timestamp;P1;durP1;ratioP1;P2;durP2;ratioP2
19560;SDS011;9927;47.792;10.616;2024-03-23T04:02:32;4.40;;;4.00;;
19560;SDS011;9927;47.792;10.616;2024-03-23T04:04:59;4.00;;;3.80;;
19560;SDS011;9927;47.792;10.616;2024-03-23T04:07:25;4.80;;;4.47;;
19560;SDS011;9927;47.792;10.616;2024-03-23T04:09:51;4.45;;;4.15;;
19560;SDS011;9927;47.792;10.616;2024-03-23T04:12:17;4.65;;;3.90;;
19560;SDS011;9927;47.792;10.616;2024-03-23T04:14:44;4.30;;;4.00;;
19560;SDS011;9927;47.792;10.616;2024-03-23T04:17:10;3.97;;;3.78;;
19560;SDS011;9927;47.792;10.616;2024-03-23T04:19:36;4.43;;;4.07;;
19560;SDS011;9927;47.792;10.616;2024-03-23T04:22:03;4.00;;;3.80;;
19560;SDS011;9927;47.792;10.616;2024-03-23T04:24:29;4.22;;;3.92;;
19560;SDS011;9927;47.792;10.616;2024-03-23T04:26:55;4.00;;;3.72;;
19560;SDS011;9927;47.792;10.616;2024-03-23T04:29:22;3.72;;;3.53;;
19560;SDS011;9927;47.792;10.616;2024-03-23T04:31:48;4.07;;;3.78;;
19560;SDS011;9927;47.792;10.616;2024-03-23T04:34:14;3.30;;;3.20;;
19560;SDS011;9927;47.792;10.616;2024-03-23T04:36:40;3.88;;;3.67;;
19560;SDS011;9927;47.792;10.616;2024-03-23T04:39:07;3.83;;;3.63;;
19560;SDS011;9927;47.792;10.616;2024-03-23T04:41:35;4.30;;;4.10;;
19560;SDS011;9927;47.792;10.616;2024-03-23T04:44:01;4.65;;;4.25;;
19560;SDS011;9927;47.792;10.616;2024-03-23T04:46:27;6.50;;;4.35;;
19560;SDS011;9927;47.792;10.616;2024-03-23T04:48:54;4.75;;;4.32;;
19560;SDS011;9927;47.792;10.616;2024-03-23T04:51:22;4.43;;;4.10;;
19560;SDS011;9927;47.792;10.616;2024-03-23T04:53:49;4.13;;;3.83;;
19560;SDS011;9927;47.792;10.616;2024-03-23T04:56:15;4.22;;;3.95;;
19560;SDS011;9927;47.792;10.616;2024-03-23T04:58:43;4.28;;;3.75;;
19560;SDS011;9927;47.792;10.616;2024-03-23T05:01:10;3.53;;;3.33;;
19560;SDS011;9927;47.792;10.616;2024-03-23T05:03:37;4.40;;;4.10;;
19560;SDS011;9927;47.792;10.616;2024-03-23T05:06:03;6.43;;;4.63;;
19560;SDS011;9927;47.792;10.616;2024-03-23T05:08:31;4.40;;;4.10;;
19560;SDS011;9927;47.792;10.616;2024-03-23T05:10:57;4.70;;;4.03;;
19560;SDS011;9927;47.792;10.616;2024-03-23T05:13:23;4.72;;;4.20;;
19560;SDS011;9927;47.792;10.616;2024-03-23T05:15:53;4.53;;;4.25;;
19560;SDS011;9927;47.792;10.616;2024-03-23T05:18:20;4.57;;;3.78;;
19560;SDS011;9927;47.792;10.616;2024-03-23T05:20:47;4.13;;;3.92;;
19560;SDS011;9927;47.792;10.616;2024-03-23T05:23:14;3.90;;;3.70;;
19560;SDS011;9927;47.792;10.616;2024-03-23T05:25:40;3.55;;;3.45;;
19560;SDS011;9927;47.792;10.616;2024-03-23T05:28:06;4.68;;;3.47;;
19560;SDS011;9927;47.792;10.616;2024-03-23T05:30:33;4.15;;;3.88;;
19560;SDS011;9927;47.792;10.616;2024-03-23T05:32:59;4.20;;;3.83;;
19560;SDS011;9927;47.792;10.616;2024-03-23T05:35:25;4.07;;;3.75;;
19560;SDS011;9927;47.792;10.616;2024-03-23T05:37:51;3.35;;;3.20;;
19560;SDS011;9927;47.792;10.616;2024-03-23T05:40:18;4.43;;;3.50;;
19560;SDS011;9927;47.792;10.616;2024-03-23T05:42:44;3.83;;;3.60;;
19560;SDS011;9927;47.792;10.616;2024-03-23T05:45:10;4.70;;;4.40;;
19560;SDS011;9927;47.792;10.616;2024-03-23T05:47:37;4.45;;;4.15;;
19560;SDS011;9927;47.792;10.616;2024-03-23T05:50:03;4.90;;;4.53;;
19560;SDS011;9927;47.792;10.616;2024-03-23T05:52:30;9.15;;;6.90;;
19560;SDS011;9927;47.792;10.616;2024-03-23T05:54:56;8.90;;;7.60;;
19560;SDS011;9927;47.792;10.616;2024-03-23T05:57:24;9.32;;;7.60;;
19560;SDS011;9927;47.792;10.616;2024-03-23T05:59:50;5.47;;;4.93;;
19560;SDS011;9927;47.792;10.616;2024-03-23T06:02:17;5.68;;;3.92;;
19560;SDS011;9927;47.792;10.616;2024-03-23T06:04:44;4.20;;;3.80;;
19560;SDS011;9927;47.792;10.616;2024-03-23T06:07:11;3.97;;;3.67;;
19560;SDS011;9927;47.792;10.616;2024-03-23T06:09:40;4.20;;;3.90;;
19560;SDS011;9927;47.792;10.616;2024-03-23T06:12:06;3.70;;;3.50;;
19560;SDS011;9927;47.792;10.616;2024-03-23T06:14:33;3.78;;;3.58;;
19560;SDS011;9927;47.792;10.616;2024-03-23T06:17:00;3.58;;;3.40;;
19560;SDS011;9927;47.792;10.616;2024-03-23T06:19:27;3.75;;;3.55;;
19560;SDS011;9927;47.792;10.616;2024-03-23T06:21:53;3.30;;;3.20;;
19560;SDS011;9927;47.792;10.616;2024-03-23T06:24:23;4.00;;;3.70;;
19560;SDS011;9927;47.792;10.616;2024-03-23T06:26:50;3.20;;;3.00;;
19560;SDS011;9927;47.792;10.616;2024-03-23T06:29:16;3.33;;;3.10;;
19560;SDS011;9927;47.792;10.616;2024-03-23T06:31:42;3.33;;;3.13;;
19560;SDS011;9927;47.792;10.616;2024-03-23T06:34:09;2.97;;;2.78;;
19560;SDS011;9927;47.792;10.616;2024-03-23T06:36:35;3.50;;;3.20;;
19560;SDS011;9927;47.792;10.616;2024-03-23T06:39:04;3.70;;;3.50;;
19560;SDS011;9927;47.792;10.616;2024-03-23T06:41:31;3.60;;;3.30;;
19560;SDS011;9927;47.792;10.616;2024-03-23T06:43:57;2.80;;;2.70;;
19560;SDS011;9927;47.792;10.616;2024-03-23T06:46:23;2.97;;;2.58;;
19560;SDS011;9927;47.792;10.616;2024-03-23T06:48:49;2.50;;;2.40;;
19560;SDS011;9927;47.792;10.616;2024-03-23T06:51:16;2.70;;;2.60;;
19560;SDS011;9927;47.792;10.616;2024-03-23T06:53:42;3.20;;;2.90;;
19560;SDS011;9927;47.792;10.616;2024-03-23T06:56:08;2.80;;;2.70;;
19560;SDS011;9927;47.792;10.616;2024-03-23T06:58:34;3.03;;;2.83;;
19560;SDS011;9927;47.792;10.616;2024-03-23T07:01:01;3.00;;;2.80;;
19560;SDS011;9927;47.792;10.616;2024-03-23T07:03:27;2.90;;;2.70;;
19560;SDS011;9927;47.792;10.616;2024-03-23T07:05:57;3.50;;;3.20;;
19560;SDS011;9927;47.792;10.616;2024-03-23T07:08:24;3.35;;;3.15;;
19560;SDS011;9927;47.792;10.616;2024-03-23T07:10:50;5.65;;;3.80;;
19560;SDS011;9927;47.792;10.616;2024-03-23T07:13:16;4.13;;;3.80;;
19560;SDS011;9927;47.792;10.616;2024-03-23T07:15:43;4.80;;;4.03;;
19560;SDS011;9927;47.792;10.616;2024-03-23T07:18:09;4.93;;;4.00;;
19560;SDS011;9927;47.792;10.616;2024-03-23T07:20:35;4.40;;;4.10;;
19560;SDS011;9927;47.792;10.616;2024-03-23T07:23:01;4.65;;;4.25;;
19560;SDS011;9927;47.792;10.616;2024-03-23T07:25:28;4.57;;;4.18;;
19560;SDS011;9927;47.792;10.616;2024-03-23T07:27:54;5.32;;;4.93;;
19560;SDS011;9927;47.792;10.616;2024-03-23T07:30:21;5.00;;;4.55;;
19560;SDS011;9927;47.792;10.616;2024-03-23T07:32:47;5.05;;;4.60;;
19560;SDS011;9927;47.792;10.616;2024-03-23T07:35:14;5.10;;;4.60;;
19560;SDS011;9927;47.792;10.616;2024-03-23T07:37:40;4.65;;;4.25;;
19560;SDS011;9927;47.792;10.616;2024-03-23T07:40:07;5.03;;;4.63;;
19560;SDS011;9927;47.792;10.616;2024-03-23T07:42:35;4.80;;;4.50;;
19560;SDS011;9927;47.792;10.616;2024-03-23T07:45:01;4.57;;;4.20;;
19560;SDS011;9927;47.792;10.616;2024-03-23T07:47:27;4.20;;;4.00;;
19560;SDS011;9927;47.792;10.616;2024-03-23T07:49:53;4.75;;;4.40;;
19560;SDS011;9927;47.792;10.616;2024-03-23T07:52:20;4.40;;;4.20;;
19560;SDS011;9927;47.792;10.616;2024-03-23T07:54:47;4.93;;;4.38;;
19560;SDS011;9927;47.792;10.616;2024-03-23T07:57:13;4.65;;;4.35;;
19560;SDS011;9927;47.792;10.616;2024-03-23T07:59:39;4.50;;;4.10;;
19560;SDS011;9927;47.792;10.616;2024-03-23T08:02:06;4.20;;;3.80;;
19560;SDS011;9927;47.792;10.616;2024-03-23T08:04:32;3.72;;;3.50;;
19560;SDS011;9927;47.792;10.616;2024-03-23T08:06:58;3.90;;;3.60;;
19560;SDS011;9927;47.792;10.616;2024-03-23T08:09:25;4.10;;;3.80;;
19560;SDS011;9927;47.792;10.616;2024-03-23T08:11:51;3.92;;;3.72;;
19560;SDS011;9927;47.792;10.616;2024-03-23T08:14:17;3.53;;;3.42;;
19560;SDS011;9927;47.792;10.616;2024-03-23T08:16:45;3.75;;;3.55;;
19560;SDS011;9927;47.792;10.616;2024-03-23T08:19:14;4.10;;;3.80;;
19560;SDS011;9927;47.792;10.616;2024-03-23T08:21:41;4.07;;;3.87;;
19560;SDS011;9927;47.792;10.616;2024-03-23T08:24:07;4.20;;;3.90;;
19560;SDS011;9927;47.792;10.616;2024-03-23T08:26:33;3.92;;;3.72;;
19560;SDS011;9927;47.792;10.616;2024-03-23T08:29:00;4.60;;;4.30;;
19560;SDS011;9927;47.792;10.616;2024-03-23T08:31:26;4.60;;;4.30;;
19560;SDS011;9927;47.792;10.616;2024-03-23T08:33:53;4.83;;;4.43;;
19560;SDS011;9927;47.792;10.616;2024-03-23T08:36:19;5.03;;;4.63;;
19560;SDS011;9927;47.792;10.616;2024-03-23T08:38:46;5.13;;;4.73;;
19560;SDS011;9927;47.792;10.616;2024-03-23T08:41:13;5.35;;;5.03;;
19560;SDS011;9927;47.792;10.616;2024-03-23T08:43:39;5.70;;;5.25;;
19560;SDS011;9927;47.792;10.616;2024-03-23T08:46:07;5.43;;;5.13;;
19560;SDS011;9927;47.792;10.616;2024-03-23T08:48:35;5.63;;;5.23;;
19560;SDS011;9927;47.792;10.616;2024-03-23T08:51:03;5.88;;;5.47;;
19560;SDS011;9927;47.792;10.616;2024-03-23T08:53:34;6.47;;;6.00;;
19560;SDS011;9927;47.792;10.616;2024-03-23T08:56:01;5.37;;;4.97;;
19560;SDS011;9927;47.792;10.616;2024-03-23T08:58:29;5.70;;;5.30;;
19560;SDS011;9927;47.792;10.616;2024-03-23T09:00:57;6.47;;;5.90;;
19560;SDS011;9927;47.792;10.616;2024-03-23T09:03:29;6.00;;;5.40;;
19560;SDS011;9927;47.792;10.616;2024-03-23T09:05:56;5.80;;;5.40;;
19560;SDS011;9927;47.792;10.616;2024-03-23T09:08:24;5.68;;;5.15;;
19560;SDS011;9927;47.792;10.616;2024-03-23T09:10:51;5.68;;;5.18;;
19560;SDS011;9927;47.792;10.616;2024-03-23T09:13:18;5.80;;;5.30;;
19560;SDS011;9927;47.792;10.616;2024-03-23T09:15:51;5.15;;;4.75;;
19560;SDS011;9927;47.792;10.616;2024-03-23T09:18:22;5.27;;;4.80;;
19560;SDS011;9927;47.792;10.616;2024-03-23T09:20:48;5.10;;;4.80;;
19560;SDS011;9927;47.792;10.616;2024-03-23T09:23:14;9.13;;;4.70;;
19560;SDS011;9927;47.792;10.616;2024-03-23T09:25:41;5.03;;;4.45;;
19560;SDS011;9927;47.792;10.616;2024-03-23T09:28:07;3.80;;;3.60;;
19560;SDS011;9927;47.792;10.616;2024-03-23T09:30:36;4.00;;;3.80;;
19560;SDS011;9927;47.792;10.616;2024-03-23T09:33:08;4.10;;;3.90;;
19560;SDS011;9927;47.792;10.616;2024-03-23T09:35:42;3.60;;;3.50;;
19560;SDS011;9927;47.792;10.616;2024-03-23T09:38:10;3.90;;;3.70;;
19560;SDS011;9927;47.792;10.616;2024-03-23T09:40:40;3.70;;;3.50;;
19560;SDS011;9927;47.792;10.616;2024-03-23T09:43:11;3.57;;;3.37;;
19560;SDS011;9927;47.792;10.616;2024-03-23T09:45:41;3.30;;;3.20;;
19560;SDS011;9927;47.792;10.616;2024-03-23T09:48:08;3.60;;;3.50;;
19560;SDS011;9927;47.792;10.616;2024-03-23T09:50:38;3.60;;;3.40;;
19560;SDS011;9927;47.792;10.616;2024-03-23T09:53:06;3.90;;;3.80;;
19560;SDS011;9927;47.792;10.616;2024-03-23T09:55:34;3.50;;;3.30;;
19560;SDS011;9927;47.792;10.616;2024-03-23T09:58:03;3.60;;;3.50;;
19560;SDS011;9927;47.792;10.616;2024-03-23T10:00:34;3.43;;;3.33;;
19560;SDS011;9927;47.792;10.616;2024-03-23T10:03:00;3.70;;;3.60;;
19560;SDS011;9927;47.792;10.616;2024-03-23T10:05:28;3.93;;;3.83;;
19560;SDS011;9927;47.792;10.616;2024-03-23T10:07:55;3.80;;;3.50;;
19560;SDS011;9927;47.792;10.616;2024-03-23T10:10:21;3.80;;;3.50;;
19560;SDS011;9927;47.792;10.616;2024-03-23T10:12:48;3.50;;;3.40;;
19560;SDS011;9927;47.792;10.616;2024-03-23T10:15:18;3.10;;;3.00;;
19560;SDS011;9927;47.792;10.616;2024-03-23T10:17:46;3.60;;;3.50;;
19560;SDS011;9927;47.792;10.616;2024-03-23T10:20:13;7.43;;;3.40;;
19560;SDS011;9927;47.792;10.616;2024-03-23T10:22:48;3.07;;;2.97;;
19560;SDS011;9927;47.792;10.616;2024-03-23T10:25:16;3.17;;;3.07;;
19560;SDS011;9927;47.792;10.616;2024-03-23T10:27:45;3.63;;;3.20;;
19560;SDS011;9927;47.792;10.616;2024-03-23T10:30:43;6.90;;;3.10;;
19560;SDS011;9927;47.792;10.616;2024-03-23T10:33:22;2.60;;;2.60;;
19560;SDS011;9927;47.792;10.616;2024-03-23T10:35:54;2.80;;;2.60;;
19560;SDS011;9927;47.792;10.616;2024-03-23T10:38:21;3.00;;;2.90;;
19560;SDS011;9927;47.792;10.616;2024-03-23T10:40:47;2.73;;;2.73;;
19560;SDS011;9927;47.792;10.616;2024-03-23T10:43:13;2.40;;;2.40;;
19560;SDS011;9927;47.792;10.616;2024-03-23T10:45:42;2.60;;;2.50;;
19560;SDS011;9927;47.792;10.616;2024-03-23T10:48:08;2.60;;;2.60;;
19560;SDS011;9927;47.792;10.616;2024-03-23T10:50:35;2.67;;;2.63;;
19560;SDS011;9927;47.792;10.616;2024-03-23T10:53:01;2.60;;;2.60;;
19560;SDS011;9927;47.792;10.616;2024-03-23T10:55:28;2.50;;;2.50;;
19560;SDS011;9927;47.792;10.616;2024-03-23T10:57:55;2.57;;;2.57;;
19560;SDS011;9927;47.792;10.616;2024-03-23T11:00:24;2.90;;;2.70;;
19560;SDS011;9927;47.792;10.616;2024-03-23T11:02:50;2.50;;;2.50;;
19560;SDS011;9927;47.792;10.616;2024-03-23T11:07:53;2.70;;;2.70;;
19560;SDS011;9927;47.792;10.616;2024-03-23T11:12:53;2.50;;;2.50;;
19560;SDS011;9927;47.792;10.616;2024-03-23T11:15:20;2.80;;;2.70;;
19560;SDS011;9927;47.792;10.616;2024-03-23T11:18:05;2.60;;;2.60;;
19560;SDS011;9927;47.792;10.616;2024-03-23T11:20:37;2.60;;;2.60;;
19560;SDS011;9927;47.792;10.616;2024-03-23T11:23:04;2.73;;;2.73;;
19560;SDS011;9927;47.792;10.616;2024-03-23T11:25:30;2.70;;;2.60;;
19560;SDS011;9927;47.792;10.616;2024-03-23T11:27:57;2.70;;;2.60;;
19560;SDS011;9927;47.792;10.616;2024-03-23T11:30:34;2.70;;;2.60;;
19560;SDS011;9927;47.792;10.616;2024-03-23T11:33:03;2.80;;;2.70;;
19560;SDS011;9927;47.792;10.616;2024-03-23T11:38:05;2.80;;;2.70;;
19560;SDS011;9927;47.792;10.616;2024-03-23T11:40:35;2.80;;;2.70;;
19560;SDS011;9927;47.792;10.616;2024-03-23T11:43:07;2.93;;;2.73;;
19560;SDS011;9927;47.792;10.616;2024-03-23T11:45:38;2.73;;;2.70;;
19560;SDS011;9927;47.792;10.616;2024-03-23T11:48:28;2.70;;;2.50;;
19560;SDS011;9927;47.792;10.616;2024-03-23T11:50:56;2.90;;;2.80;;
19560;SDS011;9927;47.792;10.616;2024-03-23T11:53:23;2.90;;;2.80;;
19560;SDS011;9927;47.792;10.616;2024-03-23T11:55:55;3.00;;;2.80;;
19560;SDS011;9927;47.792;10.616;2024-03-23T11:58:26;3.00;;;2.90;;
19560;SDS011;9927;47.792;10.616;2024-03-23T12:00:55;3.38;;;3.08;;
19560;SDS011;9927;47.792;10.616;2024-03-23T12:03:27;2.80;;;2.80;;
19560;SDS011;9927;47.792;10.616;2024-03-23T12:05:55;3.60;;;3.30;;
19560;SDS011;9927;47.792;10.616;2024-03-23T12:08:23;3.50;;;3.30;;
19560;SDS011;9927;47.792;10.616;2024-03-23T12:13:31;2.60;;;2.60;;
19560;SDS011;9927;47.792;10.616;2024-03-23T12:18:37;2.88;;;2.78;;
19560;SDS011;9927;47.792;10.616;2024-03-23T12:21:08;2.90;;;2.90;;
19560;SDS011;9927;47.792;10.616;2024-03-23T12:23:35;3.50;;;3.30;;
19560;SDS011;9927;47.792;10.616;2024-03-23T12:26:02;3.70;;;3.40;;
19560;SDS011;9927;47.792;10.616;2024-03-23T12:28:28;3.60;;;3.40;;
19560;SDS011;9927;47.792;10.616;2024-03-23T12:30:54;3.60;;;3.40;;
19560;SDS011;9927;47.792;10.616;2024-03-23T12:33:21;4.38;;;4.00;;
19560;SDS011;9927;47.792;10.616;2024-03-23T12:35:47;4.30;;;3.90;;
19560;SDS011;9927;47.792;10.616;2024-03-23T12:38:14;3.70;;;3.60;;
19560;SDS011;9927;47.792;10.616;2024-03-23T12:40:40;3.47;;;3.27;;
19560;SDS011;9927;47.792;10.616;2024-03-23T12:43:07;3.30;;;3.20;;
19560;SDS011;9927;47.792;10.616;2024-03-23T12:45:33;2.90;;;2.70;;
19560;SDS011;9927;47.792;10.616;2024-03-23T12:47:59;3.20;;;3.10;;
19560;SDS011;9927;47.792;10.616;2024-03-23T12:50:26;4.40;;;4.00;;
19560;SDS011;9927;47.792;10.616;2024-03-23T12:52:52;4.30;;;4.00;;
19560;SDS011;9927;47.792;10.616;2024-03-23T12:55:18;4.73;;;4.20;;
19560;SDS011;9927;47.792;10.616;2024-03-23T12:57:46;4.20;;;3.80;;
19560;SDS011;9927;47.792;10.616;2024-03-23T13:00:12;4.00;;;3.70;;
19560;SDS011;9927;47.792;10.616;2024-03-23T13:02:41;4.10;;;3.70;;
19560;SDS011;9927;47.792;10.616;2024-03-23T13:05:07;4.47;;;4.17;;
19560;SDS011;9927;47.792;10.616;2024-03-23T13:07:34;4.15;;;3.85;;
19560;SDS011;9927;47.792;10.616;2024-03-23T13:10:01;3.90;;;3.60;;
19560;SDS011;9927;47.792;10.616;2024-03-23T13:12:28;4.20;;;3.90;;
19560;SDS011;9927;47.792;10.616;2024-03-23T13:14:54;4.45;;;4.05;;
19560;SDS011;9927;47.792;10.616;2024-03-23T13:17:20;5.47;;;3.97;;
19560;SDS011;9927;47.792;10.616;2024-03-23T13:19:46;4.23;;;3.80;;
19560;SDS011;9927;47.792;10.616;2024-03-23T13:22:13;6.07;;;4.17;;
19560;SDS011;9927;47.792;10.616;2024-03-23T13:24:39;7.77;;;4.30;;
19560;SDS011;9927;47.792;10.616;2024-03-23T13:27:05;4.77;;;4.00;;
19560;SDS011;9927;47.792;10.616;2024-03-23T13:29:33;4.80;;;4.30;;
19560;SDS011;9927;47.792;10.616;2024-03-23T13:32:08;5.00;;;4.30;;
19560;SDS011;9927;47.792;10.616;2024-03-23T13:34:35;5.13;;;4.13;;
19560;SDS011;9927;47.792;10.616;2024-03-23T13:37:01;4.70;;;3.93;;
19560;SDS011;9927;47.792;10.616;2024-03-23T13:39:29;5.23;;;4.00;;
19560;SDS011;9927;47.792;10.616;2024-03-23T13:41:56;3.92;;;3.40;;
19560;SDS011;9927;47.792;10.616;2024-03-23T13:44:23;3.90;;;3.60;;
19560;SDS011;9927;47.792;10.616;2024-03-23T13:46:49;6.35;;;3.75;;
19560;SDS011;9927;47.792;10.616;2024-03-23T13:51:55;5.35;;;3.28;;
19560;SDS011;9927;47.792;10.616;2024-03-23T13:54:24;3.60;;;3.40;;
19560;SDS011;9927;47.792;10.616;2024-03-23T13:56:51;7.10;;;3.90;;
19560;SDS011;9927;47.792;10.616;2024-03-23T13:59:18;4.97;;;3.70;;
19560;SDS011;9927;47.792;10.616;2024-03-23T14:01:44;5.68;;;3.67;;
19560;SDS011;9927;47.792;10.616;2024-03-23T14:04:13;4.30;;;3.60;;
19560;SDS011;9927;47.792;10.616;2024-03-23T14:06:42;5.67;;;3.37;;
19560;SDS011;9927;47.792;10.616;2024-03-23T14:09:11;5.70;;;3.43;;
19560;SDS011;9927;47.792;10.616;2024-03-23T14:11:38;7.33;;;3.90;;
19560;SDS011;9927;47.792;10.616;2024-03-23T14:14:06;4.50;;;4.10;;
19560;SDS011;9927;47.792;10.616;2024-03-23T14:16:32;5.47;;;4.97;;
19560;SDS011;9927;47.792;10.616;2024-03-23T14:18:59;4.50;;;4.10;;
19560;SDS011;9927;47.792;10.616;2024-03-23T14:21:25;4.53;;;4.17;;
19560;SDS011;9927;47.792;10.616;2024-03-23T14:23:52;4.53;;;4.33;;
19560;SDS011;9927;47.792;10.616;2024-03-23T14:26:20;4.60;;;4.30;;
19560;SDS011;9927;47.792;10.616;2024-03-23T14:28:47;4.40;;;4.10;;
19560;SDS011;9927;47.792;10.616;2024-03-23T14:31:15;4.07;;;3.80;;
19560;SDS011;9927;47.792;10.616;2024-03-23T14:33:41;4.20;;;3.90;;
19560;SDS011;9927;47.792;10.616;2024-03-23T14:36:15;4.50;;;3.80;;
19560;SDS011;9927;47.792;10.616;2024-03-23T14:38:46;3.97;;;3.70;;
19560;SDS011;9927;47.792;10.616;2024-03-23T14:41:16;4.20;;;3.90;;
19560;SDS011;9927;47.792;10.616;2024-03-23T14:43:42;4.10;;;3.80;;
19560;SDS011;9927;47.792;10.616;2024-03-23T14:46:10;4.23;;;3.90;;
19560;SDS011;9927;47.792;10.616;2024-03-23T14:48:41;4.20;;;4.00;;
19560;SDS011;9927;47.792;10.616;2024-03-23T14:51:10;4.50;;;4.20;;
19560;SDS011;9927;47.792;10.616;2024-03-23T14:53:40;3.70;;;3.50;;
19560;SDS011;9927;47.792;10.616;2024-03-23T14:56:10;4.73;;;4.30;;
19560;SDS011;9927;47.792;10.616;2024-03-23T14:58:39;3.97;;;3.77;;
19560;SDS011;9927;47.792;10.616;2024-03-23T15:01:05;4.43;;;4.13;;
19560;SDS011;9927;47.792;10.616;2024-03-23T15:03:36;4.53;;;4.13;;
19560;SDS011;9927;47.792;10.616;2024-03-23T15:06:04;4.10;;;3.80;;
19560;SDS011;9927;47.792;10.616;2024-03-23T15:08:31;3.90;;;3.70;;
19560;SDS011;9927;47.792;10.616;2024-03-23T15:10:58;4.47;;;4.07;;
19560;SDS011;9927;47.792;10.616;2024-03-23T15:13:26;3.97;;;3.67;;
19560;SDS011;9927;47.792;10.616;2024-03-23T15:15:52;4.20;;;3.90;;
19560;SDS011;9927;47.792;10.616;2024-03-23T15:18:18;3.53;;;3.42;;
19560;SDS011;9927;47.792;10.616;2024-03-23T15:20:55;3.30;;;3.20;;
19560;SDS011;9927;47.792;10.616;2024-03-23T15:23:23;3.93;;;3.60;;
19560;SDS011;9927;47.792;10.616;2024-03-23T15:25:56;3.38;;;3.22;;
19560;SDS011;9927;47.792;10.616;2024-03-23T15:28:24;3.40;;;3.10;;
19560;SDS011;9927;47.792;10.616;2024-03-23T15:31:04;3.20;;;2.87;;
19560;SDS011;9927;47.792;10.616;2024-03-23T15:33:30;6.57;;;3.40;;
19560;SDS011;9927;47.792;10.616;2024-03-23T15:36:00;3.13;;;2.77;;
19560;SDS011;9927;47.792;10.616;2024-03-23T15:38:27;3.50;;;2.83;;
19560;SDS011;9927;47.792;10.616;2024-03-23T15:40:55;3.00;;;2.80;;
19560;SDS011;9927;47.792;10.616;2024-03-23T15:43:21;3.27;;;3.00;;
19560;SDS011;9927;47.792;10.616;2024-03-23T15:45:54;4.57;;;3.07;;
19560;SDS011;9927;47.792;10.616;2024-03-23T15:48:21;3.40;;;3.10;;
19560;SDS011;9927;47.792;10.616;2024-03-23T15:50:52;3.20;;;3.00;;
19560;SDS011;9927;47.792;10.616;2024-03-23T15:53:22;3.30;;;3.00;;
19560;SDS011;9927;47.792;10.616;2024-03-23T15:55:53;3.10;;;2.80;;
19560;SDS011;9927;47.792;10.616;2024-03-23T15:58:27;5.73;;;3.60;;
19560;SDS011;9927;47.792;10.616;2024-03-23T16:00:57;5.67;;;3.20;;
19560;SDS011;9927;47.792;10.616;2024-03-23T16:03:24;4.23;;;2.93;;
19560;SDS011;9927;47.792;10.616;2024-03-23T16:05:53;3.43;;;3.13;;
19560;SDS011;9927;47.792;10.616;2024-03-23T16:08:20;3.37;;;3.00;;
19560;SDS011;9927;47.792;10.616;2024-03-23T16:10:46;4.03;;;3.47;;
19560;SDS011;9927;47.792;10.616;2024-03-23T16:13:13;4.60;;;2.93;;
19560;SDS011;9927;47.792;10.616;2024-03-23T16:15:39;4.87;;;3.00;;
19560;SDS011;9927;47.792;10.616;2024-03-23T16:18:06;3.00;;;2.80;;
19560;SDS011;9927;47.792;10.616;2024-03-23T16:20:32;5.57;;;3.30;;
19560;SDS011;9927;47.792;10.616;2024-03-23T16:22:59;3.10;;;2.90;;
19560;SDS011;9927;47.792;10.616;2024-03-23T16:25:26;5.80;;;3.10;;
19560;SDS011;9927;47.792;10.616;2024-03-23T16:27:53;3.30;;;3.10;;
19560;SDS011;9927;47.792;10.616;2024-03-23T16:30:20;4.30;;;3.30;;
19560;SDS011;9927;47.792;10.616;2024-03-23T16:32:49;3.80;;;3.40;;
19560;SDS011;9927;47.792;10.616;2024-03-23T16:35:15;3.50;;;3.20;;
19560;SDS011;9927;47.792;10.616;2024-03-23T16:37:42;4.63;;;3.20;;
19560;SDS011;9927;47.792;10.616;2024-03-23T16:40:08;3.30;;;3.00;;
19560;SDS011;9927;47.792;10.616;2024-03-23T16:42:35;4.90;;;3.33;;
19560;SDS011;9927;47.792;10.616;2024-03-23T16:45:02;3.27;;;3.00;;
19560;SDS011;9927;47.792;10.616;2024-03-23T16:47:29;4.80;;;3.97;;
19560;SDS011;9927;47.792;10.616;2024-03-23T16:49:55;5.50;;;3.33;;
19560;SDS011;9927;47.792;10.616;2024-03-23T16:52:22;4.53;;;3.53;;
19560;SDS011;9927;47.792;10.616;2024-03-23T16:54:48;8.33;;;3.50;;
19560;SDS011;9927;47.792;10.616;2024-03-23T16:57:15;3.40;;;3.10;;
19560;SDS011;9927;47.792;10.616;2024-03-23T16:59:41;5.13;;;3.50;;
19560;SDS011;9927;47.792;10.616;2024-03-23T17:02:07;3.80;;;3.40;;
19560;SDS011;9927;47.792;10.616;2024-03-23T17:04:34;4.10;;;3.37;;
19560;SDS011;9927;47.792;10.616;2024-03-23T17:07:00;3.53;;;3.20;;
19560;SDS011;9927;47.792;10.616;2024-03-23T17:09:26;3.73;;;3.40;;
19560;SDS011;9927;47.792;10.616;2024-03-23T17:11:53;9.93;;;3.73;;
19560;SDS011;9927;47.792;10.616;2024-03-23T17:14:19;3.70;;;3.40;;
19560;SDS011;9927;47.792;10.616;2024-03-23T17:16:46;3.73;;;3.47;;
19560;SDS011;9927;47.792;10.616;2024-03-23T17:19:12;3.57;;;3.17;;
19560;SDS011;9927;47.792;10.616;2024-03-23T17:21:38;4.90;;;3.47;;
19560;SDS011;9927;47.792;10.616;2024-03-23T17:24:06;3.50;;;3.10;;
19560;SDS011;9927;47.792;10.616;2024-03-23T17:26:35;4.50;;;3.40;;
19560;SDS011;9927;47.792;10.616;2024-03-23T17:29:01;3.47;;;3.00;;
19560;SDS011;9927;47.792;10.616;2024-03-23T17:31:28;3.63;;;3.33;;
19560;SDS011;9927;47.792;10.616;2024-03-23T17:33:54;5.03;;;3.40;;
19560;SDS011;9927;47.792;10.616;2024-03-23T17:36:21;3.73;;;3.37;;
19560;SDS011;9927;47.792;10.616;2024-03-23T17:38:54;3.73;;;3.23;;
19560;SDS011;9927;47.792;10.616;2024-03-23T17:41:23;3.60;;;3.03;;
19560;SDS011;9927;47.792;10.616;2024-03-23T17:43:54;5.20;;;3.53;;
19560;SDS011;9927;47.792;10.616;2024-03-23T17:46:20;5.30;;;3.20;;
19560;SDS011;9927;47.792;10.616;2024-03-23T17:48:46;4.40;;;3.70;;
19560;SDS011;9927;47.792;10.616;2024-03-23T17:51:12;4.13;;;3.40;;
19560;SDS011;9927;47.792;10.616;2024-03-23T17:53:40;3.67;;;3.30;;
19560;SDS011;9927;47.792;10.616;2024-03-23T17:56:07;3.80;;;3.50;;
19560;SDS011;9927;47.792;10.616;2024-03-23T17:58:33;4.10;;;3.70;;
19560;SDS011;9927;47.792;10.616;2024-03-23T18:01:09;4.33;;;3.93;;
19560;SDS011;9927;47.792;10.616;2024-03-23T18:03:35;4.77;;;3.87;;
19560;SDS011;9927;47.792;10.616;2024-03-23T18:06:01;5.10;;;3.90;;
19560;SDS011;9927;47.792;10.616;2024-03-23T18:08:28;9.13;;;3.80;;
19560;SDS011;9927;47.792;10.616;2024-03-23T18:10:54;4.77;;;3.50;;
19560;SDS011;9927;47.792;10.616;2024-03-23T18:13:20;3.93;;;3.63;;
19560;SDS011;9927;47.792;10.616;2024-03-23T18:15:54;4.67;;;3.77;;
19560;SDS011;9927;47.792;10.616;2024-03-23T18:18:22;3.70;;;3.37;;
19560;SDS011;9927;47.792;10.616;2024-03-23T18:20:50;5.50;;;3.40;;
19560;SDS011;9927;47.792;10.616;2024-03-23T18:23:16;5.03;;;3.53;;
19560;SDS011;9927;47.792;10.616;2024-03-23T18:25:55;7.20;;;3.50;;
19560;SDS011;9927;47.792;10.616;2024-03-23T18:28:22;4.30;;;3.77;;
19560;SDS011;9927;47.792;10.616;2024-03-23T18:30:55;4.60;;;3.20;;
19560;SDS011;9927;47.792;10.616;2024-03-23T18:33:25;3.67;;;3.10;;
19560;SDS011;9927;47.792;10.616;2024-03-23T18:35:56;4.43;;;3.30;;
19560;SDS011;9927;47.792;10.616;2024-03-23T18:38:23;4.37;;;3.20;;
19560;SDS011;9927;47.792;10.616;2024-03-23T18:40:49;5.53;;;3.30;;
19560;SDS011;9927;47.792;10.616;2024-03-23T18:43:15;4.00;;;3.63;;
19560;SDS011;9927;47.792;10.616;2024-03-23T18:45:49;6.07;;;3.33;;
19560;SDS011;9927;47.792;10.616;2024-03-23T18:48:16;3.50;;;3.20;;
19560;SDS011;9927;47.792;10.616;2024-03-23T18:50:43;3.20;;;3.00;;
19560;SDS011;9927;47.792;10.616;2024-03-23T18:53:09;3.43;;;3.23;;
19560;SDS011;9927;47.792;10.616;2024-03-23T18:55:40;3.97;;;3.67;;
19560;SDS011;9927;47.792;10.616;2024-03-23T18:58:08;4.23;;;3.60;;
19560;SDS011;9927;47.792;10.616;2024-03-23T19:00:34;5.17;;;3.87;;
19560;SDS011;9927;47.792;10.616;2024-03-23T19:03:00;4.83;;;3.70;;
19560;SDS011;9927;47.792;10.616;2024-03-23T19:05:27;4.13;;;3.70;;
19560;SDS011;9927;47.792;10.616;2024-03-23T19:07:53;3.80;;;3.50;;